Altdorf, Switzerland
Current Conditions -  °F | °C
As of 7:50 AM on Saturday 25 Oct 2014 (Local Time) from LSZC Reporting Station
Rain Showers Rain Showers  
Wind Chill: 46°   Ceiling: 6000
Heat Index: 46°   Visibility: 6mi
Dew Point: 41°   Wind: 3mph
Humidity: 81%   Direction: NA
Pressure: 30.15"   Gusts: NA
Location:  46.89°N, 8.64°E
Report Text: LSZC 250550Z AUTO VRB03KT 9999 -SHRA OVC060 08/05 Q1021
Loading
Personal Weather Stations






























Interactive Weather Map
Tropical Storm Tracking
New forecast layout! Learn more

10-Day Weather Forecast

Advertisements
Track Severe Weather on mobile